createdAt,value
2017-08-25T00:01:40.595Z,66.10
2017-08-25T00:04:09.751Z,66.30
2017-08-25T00:06:38.815Z,66.50
2017-08-25T00:09:07.803Z,66.50
2017-08-25T00:11:36.746Z,66.50
2017-08-25T00:14:06.285Z,66.40
2017-08-25T00:16:35.308Z,66.40
2017-08-25T00:19:04.343Z,66.70
2017-08-25T00:21:33.331Z,66.90
2017-08-25T00:24:02.305Z,66.60
2017-08-25T00:26:31.255Z,66.60
2017-08-25T00:29:00.214Z,67.00
2017-08-25T00:31:29.219Z,67.30
2017-08-25T00:33:58.147Z,67.30
2017-08-25T00:36:27.166Z,67.40
2017-08-25T00:38:56.387Z,67.40
2017-08-25T00:41:25.330Z,68.30
2017-08-25T00:43:55.618Z,67.80
2017-08-25T00:46:24.581Z,67.80
2017-08-25T00:48:53.540Z,68.70
2017-08-25T00:51:22.478Z,67.80
2017-08-25T00:53:51.436Z,67.80
2017-08-25T00:56:20.661Z,67.70
2017-08-25T00:58:49.971Z,67.60
2017-08-25T01:01:19.246Z,67.60
2017-08-25T01:03:48.831Z,67.80
2017-08-25T01:06:17.875Z,68.00
2017-08-25T01:08:46.918Z,67.90
2017-08-25T01:11:15.858Z,67.90
2017-08-25T01:13:44.806Z,67.90
2017-08-25T01:16:13.933Z,68.50
2017-08-25T01:18:42.990Z,67.70
2017-08-25T01:21:12.026Z,67.60
2017-08-25T01:23:41.269Z,68.30
2017-08-25T01:26:10.389Z,67.40
2017-08-25T01:28:39.685Z,67.20
2017-08-25T01:31:08.719Z,67.20
2017-08-25T01:33:38.658Z,67.10
2017-08-25T01:36:07.697Z,67.00
2017-08-25T01:38:37.070Z,67.00
2017-08-25T01:41:06.011Z,66.90
2017-08-25T01:43:34.966Z,66.90
2017-08-25T01:46:04.086Z,66.90
2017-08-25T01:48:33.024Z,66.90
2017-08-25T01:51:02.003Z,66.90
2017-08-25T01:53:30.980Z,66.90
2017-08-25T01:55:59.949Z,66.90
2017-08-25T01:58:28.897Z,66.90
2017-08-25T02:00:57.861Z,66.80
2017-08-25T02:03:26.910Z,66.90
2017-08-25T02:05:56.030Z,66.90
2017-08-25T02:08:25.005Z,66.70
2017-08-25T02:10:53.935Z,66.00
2017-08-25T02:13:23.102Z,65.80
2017-08-25T02:15:52.238Z,66.00
2017-08-25T02:18:21.203Z,66.10
2017-08-25T02:20:50.155Z,66.30
2017-08-25T02:23:19.110Z,66.50
2017-08-25T02:25:48.067Z,66.50
2017-08-25T02:28:17.036Z,66.30
2017-08-25T02:30:46.024Z,66.30
2017-08-25T02:33:14.968Z,66.40
2017-08-25T02:35:43.924Z,66.30
2017-08-25T02:38:12.883Z,66.20
2017-08-25T02:40:41.846Z,65.80
2017-08-25T02:43:10.808Z,65.60
2017-08-25T02:45:39.772Z,66.00
2017-08-25T02:48:08.731Z,66.30
2017-08-25T02:50:37.687Z,66.70
2017-08-25T02:53:06.654Z,67.00
2017-08-25T02:55:35.603Z,67.30
2017-08-25T02:58:04.553Z,67.40
2017-08-25T03:00:33.507Z,67.90
2017-08-25T03:03:02.461Z,67.40
2017-08-25T03:05:31.432Z,67.00
2017-08-25T03:08:00.379Z,67.00
2017-08-25T03:10:29.330Z,67.30
2017-08-25T03:12:58.286Z,67.40
2017-08-25T03:15:27.236Z,67.30
2017-08-25T03:17:56.203Z,67.30
2017-08-25T03:20:25.158Z,67.20
2017-08-25T03:22:54.103Z,67.10
2017-08-25T03:25:23.059Z,66.90
2017-08-25T03:27:52.016Z,66.80
2017-08-25T03:30:20.984Z,66.70
2017-08-25T03:32:49.939Z,66.70
2017-08-25T03:35:18.894Z,66.90
2017-08-25T03:37:47.847Z,66.90
2017-08-25T03:40:16.803Z,66.90
2017-08-25T03:42:46.745Z,66.80
2017-08-25T03:45:15.701Z,66.80
2017-08-25T03:47:44.647Z,67.00
2017-08-25T03:50:13.614Z,67.00
2017-08-25T03:52:42.551Z,66.70
2017-08-25T03:55:11.528Z,66.30
2017-08-25T03:57:40.482Z,66.10
2017-08-25T04:00:09.430Z,66.00
2017-08-25T04:02:39.300Z,66.10
2017-08-25T04:05:08.248Z,66.50
2017-08-25T04:07:37.223Z,66.50
2017-08-25T04:10:06.171Z,66.50
2017-08-25T04:12:35.120Z,66.80
2017-08-25T04:15:04.083Z,66.80
2017-08-25T04:17:33.035Z,66.10
2017-08-25T04:20:02.009Z,66.60
2017-08-25T04:22:30.954Z,66.50
2017-08-25T04:24:59.904Z,66.70
2017-08-25T04:27:28.887Z,66.30
2017-08-25T04:29:57.831Z,66.30
2017-08-25T04:32:26.812Z,66.30
2017-08-25T04:34:55.760Z,66.20
2017-08-25T04:37:24.752Z,66.40
2017-08-25T04:39:53.705Z,66.60
2017-08-25T04:42:22.651Z,67.10
2017-08-25T04:44:51.636Z,66.60
2017-08-25T04:47:20.597Z,66.50
2017-08-25T04:49:49.559Z,66.50
2017-08-25T04:52:18.507Z,66.30
2017-08-25T04:54:47.520Z,66.20
2017-08-25T04:57:16.495Z,66.30
2017-08-25T04:59:45.448Z,66.20
2017-08-25T05:02:14.403Z,65.80
2017-08-25T05:04:43.351Z,65.60
2017-08-25T05:07:12.300Z,66.40
2017-08-25T05:09:41.283Z,65.70
2017-08-25T05:12:10.579Z,65.70
2017-08-25T05:14:39.551Z,65.80
2017-08-25T05:17:08.507Z,65.80
2017-08-25T05:19:37.461Z,65.90
2017-08-25T05:22:06.439Z,66.10
2017-08-25T05:24:35.388Z,66.40
2017-08-25T05:27:04.339Z,66.40
2017-08-25T05:29:33.290Z,66.20
2017-08-25T05:32:02.240Z,65.90
2017-08-25T05:34:31.207Z,65.70
2017-08-25T05:37:00.154Z,65.60
2017-08-25T05:39:29.107Z,65.50
2017-08-25T05:41:58.065Z,65.60
2017-08-25T05:44:27.011Z,65.20
2017-08-25T05:46:56.002Z,65.10
2017-08-25T05:49:24.951Z,64.90
2017-08-25T05:51:53.900Z,64.90
2017-08-25T05:54:22.854Z,64.90
2017-08-25T05:56:51.811Z,65.10
2017-08-25T05:59:20.785Z,64.90
2017-08-25T06:01:49.757Z,64.50
2017-08-25T06:04:18.706Z,64.20
2017-08-25T06:06:47.679Z,63.40
2017-08-25T06:09:16.638Z,63.00
2017-08-25T06:11:45.618Z,62.50
2017-08-25T06:14:14.571Z,62.10
2017-08-25T06:16:43.522Z,61.80
2017-08-25T06:19:12.503Z,61.80
2017-08-25T06:21:41.463Z,61.70
2017-08-25T06:24:10.427Z,61.50
2017-08-25T06:26:39.410Z,61.40
2017-08-25T06:29:08.387Z,61.80
2017-08-25T06:31:37.339Z,62.10
2017-08-25T06:34:06.311Z,62.20
2017-08-25T06:36:35.258Z,62.10
2017-08-25T06:39:04.247Z,62.10
2017-08-25T06:41:33.453Z,62.20
2017-08-25T06:44:02.424Z,62.00
2017-08-25T06:46:31.355Z,61.60
2017-08-25T06:49:00.320Z,61.50
2017-08-25T06:51:29.267Z,61.50
2017-08-25T06:53:58.960Z,61.60
2017-08-25T06:56:27.916Z,61.30
2017-08-25T06:58:56.874Z,61.20
2017-08-25T07:01:25.836Z,61.60
2017-08-25T07:03:54.787Z,60.80
2017-08-25T07:06:23.764Z,60.10
2017-08-25T07:08:52.723Z,60.40
2017-08-25T07:11:21.674Z,59.50
2017-08-25T07:13:50.644Z,59.10
2017-08-25T07:16:19.599Z,58.80
2017-08-25T07:18:48.584Z,58.30
2017-08-25T07:21:17.549Z,57.90
2017-08-25T07:23:46.490Z,57.80
2017-08-25T07:26:15.455Z,57.50
2017-08-25T07:28:44.410Z,56.70
2017-08-25T07:31:13.374Z,56.50
2017-08-25T07:33:42.331Z,55.80
2017-08-25T07:36:11.288Z,55.80
2017-08-25T07:38:40.254Z,55.40
2017-08-25T07:41:09.214Z,55.00
2017-08-25T07:43:38.183Z,54.70
2017-08-25T07:46:07.131Z,54.00
2017-08-25T07:48:36.076Z,53.20
2017-08-25T07:51:05.031Z,52.40
2017-08-25T07:53:33.988Z,51.70
2017-08-25T07:56:02.960Z,51.20
2017-08-25T07:58:31.915Z,51.10
2017-08-25T08:01:00.867Z,50.60
2017-08-25T08:03:29.827Z,50.50
2017-08-25T08:05:58.776Z,50.40
2017-08-25T08:08:27.759Z,50.50
2017-08-25T08:10:56.701Z,50.10
2017-08-25T08:13:25.650Z,49.90
2017-08-25T08:15:54.603Z,49.40
2017-08-25T08:18:23.561Z,48.80
2017-08-25T08:20:52.528Z,48.80
2017-08-25T08:23:21.476Z,48.30
2017-08-25T08:25:50.430Z,48.20
2017-08-25T08:28:19.384Z,48.00
2017-08-25T08:30:48.331Z,47.70
2017-08-25T08:33:17.300Z,47.60
2017-08-25T08:35:46.248Z,47.70
2017-08-25T08:38:15.207Z,47.00
2017-08-25T08:40:44.154Z,46.50
2017-08-25T08:43:13.103Z,45.50
2017-08-25T08:45:42.059Z,45.70
2017-08-25T08:48:11.011Z,45.60
2017-08-25T08:50:39.975Z,44.50
2017-08-25T08:53:08.931Z,44.40
2017-08-25T08:55:37.874Z,43.80
2017-08-25T08:58:06.848Z,43.30
2017-08-25T09:00:35.800Z,42.30
2017-08-25T09:03:04.747Z,41.40
2017-08-25T09:05:39.261Z,40.40
2017-08-25T09:08:08.204Z,39.60
2017-08-25T09:10:37.174Z,38.90
2017-08-25T09:13:06.135Z,38.80
2017-08-25T09:15:35.084Z,37.90
2017-08-25T09:18:04.039Z,37.80
2017-08-25T09:20:32.987Z,36.30
2017-08-25T09:23:01.957Z,36.10
2017-08-25T09:25:30.903Z,36.20
2017-08-25T09:27:59.852Z,36.10
2017-08-25T09:30:28.798Z,35.00
2017-08-25T09:32:57.747Z,34.10
2017-08-25T09:35:26.734Z,34.00
2017-08-25T09:37:55.691Z,32.70
2017-08-25T09:40:24.643Z,31.70
2017-08-25T09:42:53.608Z,30.90
2017-08-25T09:45:22.561Z,30.80
2017-08-25T09:47:52.454Z,31.10
2017-08-25T09:50:22.998Z,31.70
2017-08-25T09:52:52.335Z,30.70
2017-08-25T09:55:21.291Z,29.90
2017-08-25T09:57:50.246Z,29.90
2017-08-25T10:00:19.202Z,29.70
2017-08-25T10:02:48.152Z,29.30
2017-08-25T10:05:17.119Z,29.30
2017-08-25T10:07:46.067Z,29.30
2017-08-25T10:10:15.026Z,29.20
2017-08-25T10:12:43.984Z,29.30
2017-08-25T10:15:12.934Z,29.40
2017-08-25T10:17:41.919Z,28.70
2017-08-25T10:20:10.875Z,27.50
2017-08-25T10:22:39.824Z,27.10
2017-08-25T10:25:08.798Z,27.20
2017-08-25T10:27:37.749Z,27.00
2017-08-25T10:30:06.753Z,28.50
2017-08-25T10:32:35.718Z,27.60
2017-08-25T10:35:22.523Z,26.70
2017-08-25T10:38:09.010Z,26.40
2017-08-25T10:40:55.804Z,26.30
2017-08-25T10:46:55.605Z,26.90
2017-08-25T10:49:24.557Z,27.60
2017-08-25T10:51:53.500Z,27.70
2017-08-25T10:54:22.469Z,27.30
2017-08-25T10:56:51.427Z,27.30
2017-08-25T10:59:20.387Z,27.10
2017-08-25T11:01:49.347Z,26.40
2017-08-25T11:04:18.275Z,27.00
2017-08-25T11:06:47.226Z,27.50
2017-08-25T11:09:16.174Z,27.90
2017-08-25T11:11:45.130Z,26.50
2017-08-25T11:14:14.082Z,26.20
2017-08-25T11:16:43.061Z,26.70
2017-08-25T11:19:12.006Z,26.40
2017-08-25T11:21:40.955Z,25.70
2017-08-25T11:24:09.919Z,26.00
2017-08-25T11:26:38.870Z,25.10
2017-08-25T11:29:07.823Z,25.60
2017-08-25T11:31:36.775Z,25.50
2017-08-25T11:34:05.725Z,25.00
2017-08-25T11:36:34.699Z,24.30
2017-08-25T11:39:03.662Z,25.40
2017-08-25T11:41:32.631Z,24.80
2017-08-25T11:44:01.594Z,24.50
2017-08-25T11:46:30.540Z,24.70
2017-08-25T11:48:59.833Z,24.70
2017-08-25T11:51:28.759Z,25.00
2017-08-25T11:53:58.464Z,24.70
2017-08-25T11:56:27.431Z,25.10
2017-08-25T11:58:56.378Z,25.20
2017-08-25T12:01:25.434Z,24.40
2017-08-25T12:03:54.388Z,25.00
2017-08-25T12:06:23.340Z,24.40
2017-08-25T12:08:52.298Z,25.00
2017-08-25T12:11:21.260Z,25.00
2017-08-25T12:13:50.227Z,25.20
2017-08-25T12:16:19.171Z,24.30
2017-08-25T12:18:48.124Z,25.20
2017-08-25T12:21:17.083Z,24.60
2017-08-25T12:23:46.046Z,24.20
2017-08-25T12:26:25.094Z,23.90
2017-08-25T12:28:54.246Z,23.20
2017-08-25T12:31:23.940Z,21.70
2017-08-25T12:33:52.899Z,22.00
2017-08-25T12:36:21.846Z,22.00
2017-08-25T12:38:50.815Z,22.50
2017-08-25T12:41:19.763Z,21.70
2017-08-25T12:43:48.716Z,22.70
2017-08-25T12:46:17.717Z,22.90
2017-08-25T12:48:46.677Z,22.40
2017-08-25T12:51:15.956Z,23.20
2017-08-25T12:53:44.937Z,22.40
2017-08-25T12:56:13.911Z,22.30
2017-08-25T12:58:42.844Z,23.00
2017-08-25T13:01:11.823Z,23.30
2017-08-25T13:03:40.776Z,21.60
2017-08-25T13:06:09.719Z,21.90
2017-08-25T13:08:38.683Z,21.90
2017-08-25T13:11:07.626Z,21.80
2017-08-25T13:13:36.580Z,21.50
2017-08-25T13:16:05.535Z,21.90
2017-08-25T13:18:34.487Z,22.30
2017-08-25T13:21:03.527Z,22.50
2017-08-25T13:23:32.487Z,22.00
2017-08-25T13:26:01.441Z,21.80
2017-08-25T13:28:30.414Z,21.70
2017-08-25T13:30:59.367Z,21.40
2017-08-25T13:33:28.317Z,20.90
2017-08-25T13:35:57.315Z,21.20
2017-08-25T13:38:26.262Z,21.20
2017-08-25T13:40:55.548Z,21.30
2017-08-25T13:43:24.519Z,20.70
2017-08-25T13:45:53.464Z,21.10
2017-08-25T13:48:22.415Z,20.90
2017-08-25T13:50:51.363Z,21.00
2017-08-25T13:53:20.342Z,21.00
2017-08-25T13:55:49.295Z,20.90
2017-08-25T13:58:18.242Z,20.60
2017-08-25T14:00:47.200Z,21.00
2017-08-25T14:03:16.159Z,21.00
2017-08-25T14:05:45.147Z,21.20
2017-08-25T14:08:14.094Z,21.60
2017-08-25T14:10:43.044Z,21.20
2017-08-25T14:13:12.135Z,21.30
2017-08-25T14:15:41.087Z,22.40
2017-08-25T14:18:10.068Z,21.90
2017-08-25T14:20:39.112Z,22.00
2017-08-25T14:23:08.067Z,21.90
2017-08-25T14:25:37.029Z,21.90
2017-08-25T14:28:05.978Z,22.20
2017-08-25T14:30:34.944Z,21.30
2017-08-25T14:33:03.895Z,20.80
2017-08-25T14:35:32.848Z,20.90
2017-08-25T14:38:01.812Z,21.60
2017-08-25T14:40:30.760Z,21.50
2017-08-25T14:42:59.740Z,21.90
2017-08-25T14:45:28.687Z,21.70
2017-08-25T14:47:57.631Z,21.60
2017-08-25T14:50:26.588Z,22.00
2017-08-25T14:52:55.548Z,21.70
2017-08-25T14:55:24.507Z,22.40
2017-08-25T14:57:53.471Z,23.00
2017-08-25T15:00:22.414Z,22.50
2017-08-25T15:02:51.381Z,22.90
2017-08-25T15:05:20.335Z,22.60
2017-08-25T15:07:49.311Z,22.90
2017-08-25T15:10:18.263Z,23.30
2017-08-25T15:12:47.215Z,23.90
2017-08-25T15:15:16.177Z,23.10
2017-08-25T15:17:45.123Z,23.60
2017-08-25T15:20:14.096Z,24.30
2017-08-25T15:22:43.050Z,24.20
2017-08-25T15:25:12.007Z,24.00
2017-08-25T15:27:40.959Z,25.40
2017-08-25T15:30:09.912Z,26.20
2017-08-25T15:32:38.882Z,26.70
2017-08-25T15:35:07.837Z,26.90
2017-08-25T15:37:36.793Z,28.20
2017-08-25T15:40:05.751Z,27.30
2017-08-25T15:42:34.710Z,27.30
2017-08-25T15:45:03.687Z,27.30
2017-08-25T15:47:32.652Z,27.60
2017-08-25T15:50:01.589Z,26.90
2017-08-25T15:52:30.546Z,27.30
2017-08-25T15:54:59.493Z,27.90
2017-08-25T15:57:28.456Z,28.80
2017-08-25T15:59:57.399Z,28.90
2017-08-25T16:02:26.344Z,29.30
2017-08-25T16:04:55.299Z,30.40
2017-08-25T16:07:24.243Z,31.90
2017-08-25T16:09:53.210Z,33.00
2017-08-25T16:12:22.169Z,33.20
2017-08-25T16:14:51.114Z,33.10
2017-08-25T16:17:20.072Z,38.20
2017-08-25T16:19:49.019Z,38.90
2017-08-25T16:22:17.991Z,40.50
2017-08-25T16:24:46.965Z,40.40
2017-08-25T16:27:15.914Z,41.50
2017-08-25T16:29:44.872Z,42.10
2017-08-25T16:32:13.823Z,42.60
2017-08-25T16:34:42.790Z,43.50
2017-08-25T16:37:11.738Z,44.50
2017-08-25T16:39:40.683Z,45.40
2017-08-25T16:42:09.637Z,45.80
2017-08-25T16:44:38.583Z,47.00
2017-08-25T16:47:07.619Z,47.80
2017-08-25T16:49:36.571Z,48.10
2017-08-25T16:52:05.531Z,47.50
2017-08-25T16:54:34.487Z,47.60
2017-08-25T16:57:03.457Z,48.20
2017-08-25T16:59:32.415Z,49.20
2017-08-25T17:02:01.360Z,49.60
2017-08-25T17:04:30.315Z,50.10
2017-08-25T17:06:59.279Z,50.10
2017-08-25T17:09:28.278Z,51.30
2017-08-25T17:11:57.251Z,50.80
2017-08-25T17:14:26.199Z,51.30
2017-08-25T17:16:55.144Z,52.20
2017-08-25T17:19:24.132Z,52.60
2017-08-25T17:21:53.090Z,52.70
2017-08-25T17:24:22.049Z,52.90
2017-08-25T17:26:51.027Z,53.10
2017-08-25T17:29:19.984Z,53.20
2017-08-25T17:31:48.940Z,53.50
2017-08-25T17:34:17.899Z,53.80
2017-08-25T17:36:46.857Z,54.20
2017-08-25T17:39:15.803Z,54.60
2017-08-25T17:41:44.779Z,54.40
2017-08-25T17:44:13.735Z,54.80
2017-08-25T17:46:42.683Z,55.10
2017-08-25T17:49:11.640Z,55.40
2017-08-25T17:51:40.583Z,55.60
2017-08-25T17:54:09.546Z,55.90
2017-08-25T17:56:38.521Z,56.20
2017-08-25T17:59:07.486Z,56.50
2017-08-25T18:01:36.462Z,56.80
2017-08-25T18:04:05.406Z,56.60
2017-08-25T18:06:34.379Z,56.80
2017-08-25T18:09:03.351Z,56.50
2017-08-25T18:11:32.314Z,56.80
2017-08-25T18:14:01.276Z,56.70
2017-08-25T18:16:30.223Z,56.70
2017-08-25T18:18:59.192Z,56.90
2017-08-25T18:21:28.139Z,56.80
2017-08-25T18:23:57.976Z,57.00
2017-08-25T18:26:26.935Z,57.10
2017-08-25T18:28:55.887Z,57.30
2017-08-25T18:31:24.860Z,57.40
2017-08-25T18:33:53.808Z,57.50
2017-08-25T18:36:22.778Z,57.90
2017-08-25T18:38:51.729Z,58.20
2017-08-25T18:41:20.675Z,58.30
2017-08-25T18:43:49.803Z,57.70
2017-08-25T18:46:18.738Z,57.80
2017-08-25T18:48:55.138Z,57.70
2017-08-25T18:51:24.091Z,57.80
2017-08-25T18:53:53.045Z,57.90
2017-08-25T18:56:22.009Z,58.00
2017-08-25T18:58:50.956Z,57.90
2017-08-25T19:01:19.940Z,58.40
2017-08-25T19:03:48.899Z,59.00
2017-08-25T19:06:17.964Z,59.40
2017-08-25T19:08:47.312Z,59.80
2017-08-25T19:11:16.281Z,60.10
2017-08-25T19:13:45.251Z,59.90
2017-08-25T19:16:14.199Z,59.90
2017-08-25T19:18:43.152Z,60.00
2017-08-25T19:21:12.130Z,60.10
2017-08-25T19:23:41.080Z,60.10
2017-08-25T19:26:10.044Z,60.30
2017-08-25T19:28:39.001Z,60.50
2017-08-25T19:31:07.952Z,60.50
2017-08-25T19:33:37.903Z,60.50
2017-08-25T19:36:06.864Z,60.70
2017-08-25T19:38:36.520Z,60.70
2017-08-25T19:41:06.403Z,60.80
2017-08-25T19:43:35.363Z,61.00
2017-08-25T19:46:04.318Z,61.30
2017-08-25T19:48:33.268Z,61.10
2017-08-25T19:51:02.244Z,61.20
2017-08-25T19:53:31.191Z,61.50
2017-08-25T19:56:00.148Z,61.90
2017-08-25T19:58:29.121Z,62.40
2017-08-25T20:00:58.076Z,62.60
2017-08-25T20:03:27.056Z,62.90
2017-08-25T20:05:56.013Z,63.00
2017-08-25T20:08:24.962Z,63.10
2017-08-25T20:10:53.946Z,63.10
2017-08-25T20:13:22.906Z,63.10
2017-08-25T20:15:51.884Z,63.20
2017-08-25T20:18:20.843Z,63.20
2017-08-25T20:20:49.813Z,63.20
2017-08-25T20:23:18.771Z,63.40
2017-08-25T20:25:47.735Z,63.50
2017-08-25T20:28:17.939Z,64.30
2017-08-25T20:30:46.877Z,63.80
2017-08-25T20:33:15.834Z,63.80
2017-08-25T20:35:44.798Z,63.80
2017-08-25T20:38:13.803Z,64.00
2017-08-25T20:40:43.420Z,64.40
2017-08-25T20:43:12.363Z,64.60
2017-08-25T20:45:41.320Z,64.90
2017-08-25T20:48:10.446Z,64.90
2017-08-25T20:50:39.415Z,64.90
2017-08-25T20:53:08.395Z,65.00
2017-08-25T20:55:37.576Z,65.30
2017-08-25T20:58:06.552Z,65.60
2017-08-25T21:00:35.511Z,65.70
2017-08-25T21:03:04.477Z,65.70
2017-08-25T21:05:33.492Z,65.60
2017-08-25T21:08:02.519Z,65.60
2017-08-25T21:10:31.462Z,65.50
2017-08-25T21:13:00.444Z,65.40
2017-08-25T21:15:29.583Z,65.20
2017-08-25T21:17:58.572Z,65.20
2017-08-25T21:20:27.527Z,65.20
2017-08-25T21:22:56.756Z,65.30
2017-08-25T21:25:25.716Z,65.30
2017-08-25T21:27:54.724Z,65.30
2017-08-25T21:30:23.684Z,65.50
2017-08-25T21:32:52.669Z,65.50
2017-08-25T21:35:21.970Z,65.40
2017-08-25T21:37:50.922Z,65.50
2017-08-25T21:40:19.983Z,65.70
2017-08-25T21:42:50.032Z,65.70
2017-08-25T21:45:18.959Z,65.70
2017-08-25T21:47:47.928Z,65.70
2017-08-25T21:50:17.056Z,65.80
2017-08-25T21:52:46.080Z,65.80
2017-08-25T21:55:15.028Z,65.80
2017-08-25T21:57:44.088Z,66.00
2017-08-25T22:00:13.051Z,66.50
2017-08-25T22:02:42.036Z,66.90
2017-08-25T22:05:11.020Z,67.10
2017-08-25T22:07:39.971Z,67.40
2017-08-25T22:10:10.005Z,67.40
2017-08-25T22:12:38.968Z,67.40
2017-08-25T22:15:07.932Z,67.40
2017-08-25T22:17:36.918Z,67.40
2017-08-25T22:20:05.885Z,67.60
2017-08-25T22:22:34.910Z,67.70
2017-08-25T22:25:03.864Z,67.70
2017-08-25T22:27:32.835Z,67.70
2017-08-25T22:30:01.804Z,67.70
2017-08-25T22:32:31.708Z,67.60
2017-08-25T22:35:00.666Z,67.60
2017-08-25T22:37:29.744Z,67.60
2017-08-25T22:39:58.698Z,67.50
2017-08-25T22:42:27.675Z,67.60
2017-08-25T22:44:56.632Z,67.40
2017-08-25T22:47:25.592Z,67.40
2017-08-25T22:49:54.555Z,67.30
2017-08-25T22:52:24.468Z,67.10
2017-08-25T22:54:53.519Z,67.00
2017-08-25T22:57:22.694Z,67.10
2017-08-25T22:59:51.663Z,67.20
2017-08-25T23:02:20.730Z,67.00
2017-08-25T23:04:49.675Z,67.10
2017-08-25T23:07:18.661Z,67.30
2017-08-25T23:09:47.619Z,67.50
2017-08-25T23:12:16.583Z,67.70
2017-08-25T23:14:45.535Z,67.70
2017-08-25T23:17:14.528Z,67.60
2017-08-25T23:19:43.488Z,67.40
2017-08-25T23:22:12.461Z,67.40
2017-08-25T23:24:41.424Z,67.30
2017-08-25T23:27:10.440Z,67.30
2017-08-25T23:29:39.410Z,67.00
2017-08-25T23:32:08.391Z,66.90
2017-08-25T23:34:37.376Z,66.80
2017-08-25T23:37:06.352Z,66.70
2017-08-25T23:39:35.315Z,66.70
2017-08-25T23:42:04.439Z,66.70
2017-08-25T23:44:33.410Z,66.80
2017-08-25T23:47:02.371Z,66.90
2017-08-25T23:49:31.344Z,67.10
2017-08-25T23:52:00.298Z,67.10
2017-08-25T23:54:29.260Z,67.10
2017-08-25T23:56:58.824Z,67.20
2017-08-25T23:59:27.781Z,67.30
